sensor_id;sensor_type;location;lat;lon;timestamp;P1;durP1;ratioP1;P2;durP2;ratioP2
12165;SDS011;6146;48.128;11.476;2022-07-23T00:01:55;7.70;;;7.00;;
12165;SDS011;6146;48.128;11.476;2022-07-23T00:04:21;8.07;;;7.00;;
12165;SDS011;6146;48.128;11.476;2022-07-23T00:06:46;7.67;;;7.07;;
12165;SDS011;6146;48.128;11.476;2022-07-23T00:09:12;7.67;;;6.97;;
12165;SDS011;6146;48.128;11.476;2022-07-23T00:11:37;8.03;;;7.33;;
12165;SDS011;6146;48.128;11.476;2022-07-23T00:14:03;6.97;;;6.40;;
12165;SDS011;6146;48.128;11.476;2022-07-23T00:16:28;7.40;;;6.70;;
12165;SDS011;6146;48.128;11.476;2022-07-23T00:18:54;7.67;;;6.93;;
12165;SDS011;6146;48.128;11.476;2022-07-23T00:21:20;7.13;;;6.53;;
12165;SDS011;6146;48.128;11.476;2022-07-23T00:23:45;7.20;;;6.50;;
12165;SDS011;6146;48.128;11.476;2022-07-23T00:26:11;6.93;;;6.33;;
12165;SDS011;6146;48.128;11.476;2022-07-23T00:28:37;7.33;;;6.63;;
12165;SDS011;6146;48.128;11.476;2022-07-23T00:31:02;7.07;;;6.43;;
12165;SDS011;6146;48.128;11.476;2022-07-23T00:33:28;7.27;;;6.57;;
12165;SDS011;6146;48.128;11.476;2022-07-23T00:35:53;7.00;;;6.40;;
12165;SDS011;6146;48.128;11.476;2022-07-23T00:38:19;6.93;;;6.33;;
12165;SDS011;6146;48.128;11.476;2022-07-23T00:40:45;7.63;;;6.90;;
12165;SDS011;6146;48.128;11.476;2022-07-23T00:43:10;7.40;;;6.70;;
12165;SDS011;6146;48.128;11.476;2022-07-23T00:45:36;7.10;;;6.50;;
12165;SDS011;6146;48.128;11.476;2022-07-23T00:48:02;6.87;;;6.27;;
12165;SDS011;6146;48.128;11.476;2022-07-23T00:50:28;7.57;;;6.87;;
12165;SDS011;6146;48.128;11.476;2022-07-23T00:52:54;7.70;;;7.00;;
12165;SDS011;6146;48.128;11.476;2022-07-23T00:55:20;7.20;;;6.50;;
12165;SDS011;6146;48.128;11.476;2022-07-23T00:57:46;8.20;;;7.40;;
12165;SDS011;6146;48.128;11.476;2022-07-23T01:00:13;7.37;;;6.67;;
12165;SDS011;6146;48.128;11.476;2022-07-23T01:02:40;7.13;;;6.53;;
12165;SDS011;6146;48.128;11.476;2022-07-23T01:05:06;7.33;;;6.73;;
12165;SDS011;6146;48.128;11.476;2022-07-23T01:07:32;7.70;;;6.93;;
12165;SDS011;6146;48.128;11.476;2022-07-23T01:09:58;8.10;;;7.40;;
12165;SDS011;6146;48.128;11.476;2022-07-23T01:12:24;7.97;;;7.00;;
12165;SDS011;6146;48.128;11.476;2022-07-23T01:14:59;8.37;;;7.57;;
12165;SDS011;6146;48.128;11.476;2022-07-23T01:17:25;8.83;;;8.03;;
12165;SDS011;6146;48.128;11.476;2022-07-23T01:19:50;8.87;;;7.97;;
12165;SDS011;6146;48.128;11.476;2022-07-23T01:22:18;9.93;;;7.23;;
12165;SDS011;6146;48.128;11.476;2022-07-23T01:24:44;11.37;;;6.90;;
12165;SDS011;6146;48.128;11.476;2022-07-23T01:27:10;8.97;;;6.60;;
12165;SDS011;6146;48.128;11.476;2022-07-23T01:29:37;8.17;;;7.10;;
12165;SDS011;6146;48.128;11.476;2022-07-23T01:32:04;7.90;;;6.47;;
12165;SDS011;6146;48.128;11.476;2022-07-23T01:34:30;8.23;;;7.37;;
12165;SDS011;6146;48.128;11.476;2022-07-23T01:36:56;12.40;;;7.70;;
12165;SDS011;6146;48.128;11.476;2022-07-23T01:39:21;11.30;;;8.17;;
12165;SDS011;6146;48.128;11.476;2022-07-23T01:41:47;8.70;;;7.90;;
12165;SDS011;6146;48.128;11.476;2022-07-23T01:44:12;9.37;;;8.17;;
12165;SDS011;6146;48.128;11.476;2022-07-23T01:46:38;9.27;;;8.13;;
12165;SDS011;6146;48.128;11.476;2022-07-23T01:49:04;8.47;;;7.63;;
12165;SDS011;6146;48.128;11.476;2022-07-23T01:51:29;7.87;;;7.10;;
12165;SDS011;6146;48.128;11.476;2022-07-23T01:53:55;10.20;;;7.90;;
12165;SDS011;6146;48.128;11.476;2022-07-23T01:56:20;10.00;;;8.90;;
12165;SDS011;6146;48.128;11.476;2022-07-23T01:58:47;8.70;;;7.80;;
12165;SDS011;6146;48.128;11.476;2022-07-23T02:01:13;9.17;;;7.77;;
12165;SDS011;6146;48.128;11.476;2022-07-23T02:03:39;7.93;;;7.23;;
12165;SDS011;6146;48.128;11.476;2022-07-23T02:06:04;9.93;;;7.73;;
12165;SDS011;6146;48.128;11.476;2022-07-23T02:08:30;7.63;;;6.93;;
12165;SDS011;6146;48.128;11.476;2022-07-23T02:10:56;7.67;;;7.00;;
12165;SDS011;6146;48.128;11.476;2022-07-23T02:13:21;7.50;;;6.60;;
12165;SDS011;6146;48.128;11.476;2022-07-23T02:15:47;7.83;;;6.90;;
12165;SDS011;6146;48.128;11.476;2022-07-23T02:18:13;7.50;;;6.80;;
12165;SDS011;6146;48.128;11.476;2022-07-23T02:20:39;7.13;;;6.23;;
12165;SDS011;6146;48.128;11.476;2022-07-23T02:23:04;6.67;;;5.97;;
12165;SDS011;6146;48.128;11.476;2022-07-23T02:25:30;6.10;;;5.53;;
12165;SDS011;6146;48.128;11.476;2022-07-23T02:27:56;5.03;;;4.60;;
12165;SDS011;6146;48.128;11.476;2022-07-23T02:30:22;5.67;;;5.03;;
12165;SDS011;6146;48.128;11.476;2022-07-23T02:32:47;5.93;;;5.20;;
12165;SDS011;6146;48.128;11.476;2022-07-23T02:35:13;5.93;;;4.90;;
12165;SDS011;6146;48.128;11.476;2022-07-23T02:37:38;5.03;;;4.50;;
12165;SDS011;6146;48.128;11.476;2022-07-23T02:40:04;4.97;;;4.50;;
12165;SDS011;6146;48.128;11.476;2022-07-23T02:42:30;4.60;;;4.17;;
12165;SDS011;6146;48.128;11.476;2022-07-23T02:44:56;5.13;;;4.43;;
12165;SDS011;6146;48.128;11.476;2022-07-23T02:47:21;4.47;;;4.07;;
12165;SDS011;6146;48.128;11.476;2022-07-23T02:49:47;3.90;;;3.50;;
12165;SDS011;6146;48.128;11.476;2022-07-23T02:52:12;4.07;;;3.67;;
12165;SDS011;6146;48.128;11.476;2022-07-23T02:54:38;4.30;;;3.90;;
12165;SDS011;6146;48.128;11.476;2022-07-23T02:57:04;4.97;;;3.87;;
12165;SDS011;6146;48.128;11.476;2022-07-23T02:59:30;3.93;;;3.50;;
12165;SDS011;6146;48.128;11.476;2022-07-23T03:01:56;4.07;;;3.67;;
12165;SDS011;6146;48.128;11.476;2022-07-23T03:04:21;4.53;;;4.13;;
12165;SDS011;6146;48.128;11.476;2022-07-23T03:06:47;4.27;;;3.87;;
12165;SDS011;6146;48.128;11.476;2022-07-23T03:09:12;4.90;;;4.40;;
12165;SDS011;6146;48.128;11.476;2022-07-23T03:11:38;5.87;;;4.67;;
12165;SDS011;6146;48.128;11.476;2022-07-23T03:14:04;5.10;;;4.60;;
12165;SDS011;6146;48.128;11.476;2022-07-23T03:16:30;5.67;;;5.17;;
12165;SDS011;6146;48.128;11.476;2022-07-23T03:18:56;5.33;;;4.87;;
12165;SDS011;6146;48.128;11.476;2022-07-23T03:21:21;5.67;;;5.17;;
12165;SDS011;6146;48.128;11.476;2022-07-23T03:23:47;5.70;;;5.20;;
12165;SDS011;6146;48.128;11.476;2022-07-23T03:26:13;6.53;;;5.50;;
12165;SDS011;6146;48.128;11.476;2022-07-23T03:28:38;6.43;;;5.83;;
12165;SDS011;6146;48.128;11.476;2022-07-23T03:31:04;6.63;;;5.70;;
12165;SDS011;6146;48.128;11.476;2022-07-23T03:33:29;6.20;;;5.60;;
12165;SDS011;6146;48.128;11.476;2022-07-23T03:35:55;6.43;;;5.67;;
12165;SDS011;6146;48.128;11.476;2022-07-23T03:38:20;5.83;;;5.33;;
12165;SDS011;6146;48.128;11.476;2022-07-23T03:40:46;6.33;;;5.53;;
12165;SDS011;6146;48.128;11.476;2022-07-23T03:43:12;6.17;;;5.57;;
12165;SDS011;6146;48.128;11.476;2022-07-23T03:45:37;6.70;;;6.10;;
12165;SDS011;6146;48.128;11.476;2022-07-23T03:48:03;6.17;;;5.57;;
12165;SDS011;6146;48.128;11.476;2022-07-23T03:50:28;5.60;;;5.07;;
12165;SDS011;6146;48.128;11.476;2022-07-23T03:52:54;6.20;;;5.13;;
12165;SDS011;6146;48.128;11.476;2022-07-23T03:55:19;5.57;;;5.07;;
12165;SDS011;6146;48.128;11.476;2022-07-23T03:57:45;5.90;;;5.40;;
12165;SDS011;6146;48.128;11.476;2022-07-23T04:00:11;6.00;;;5.20;;
12165;SDS011;6146;48.128;11.476;2022-07-23T04:02:38;5.57;;;5.07;;
12165;SDS011;6146;48.128;11.476;2022-07-23T04:05:04;6.97;;;6.30;;
12165;SDS011;6146;48.128;11.476;2022-07-23T04:07:31;6.00;;;5.43;;
12165;SDS011;6146;48.128;11.476;2022-07-23T04:09:56;6.27;;;5.73;;
12165;SDS011;6146;48.128;11.476;2022-07-23T04:12:22;6.50;;;5.90;;
12165;SDS011;6146;48.128;11.476;2022-07-23T04:14:48;6.03;;;5.53;;
12165;SDS011;6146;48.128;11.476;2022-07-23T04:17:14;6.27;;;5.67;;
12165;SDS011;6146;48.128;11.476;2022-07-23T04:19:39;6.47;;;5.80;;
12165;SDS011;6146;48.128;11.476;2022-07-23T04:22:12;6.00;;;5.50;;
12165;SDS011;6146;48.128;11.476;2022-07-23T04:24:38;6.13;;;5.53;;
12165;SDS011;6146;48.128;11.476;2022-07-23T04:27:03;6.10;;;5.60;;
12165;SDS011;6146;48.128;11.476;2022-07-23T04:29:29;6.83;;;5.60;;
12165;SDS011;6146;48.128;11.476;2022-07-23T04:31:55;7.30;;;5.50;;
12165;SDS011;6146;48.128;11.476;2022-07-23T04:34:21;6.50;;;5.90;;
12165;SDS011;6146;48.128;11.476;2022-07-23T04:36:47;6.93;;;6.23;;
12165;SDS011;6146;48.128;11.476;2022-07-23T04:39:12;6.37;;;5.70;;
12165;SDS011;6146;48.128;11.476;2022-07-23T04:41:38;6.13;;;5.63;;
12165;SDS011;6146;48.128;11.476;2022-07-23T04:44:04;6.20;;;5.40;;
12165;SDS011;6146;48.128;11.476;2022-07-23T04:46:29;7.33;;;6.03;;
12165;SDS011;6146;48.128;11.476;2022-07-23T04:48:55;8.07;;;5.87;;
12165;SDS011;6146;48.128;11.476;2022-07-23T04:51:21;6.47;;;5.87;;
12165;SDS011;6146;48.128;11.476;2022-07-23T04:53:46;7.23;;;5.40;;
12165;SDS011;6146;48.128;11.476;2022-07-23T04:56:12;6.40;;;5.80;;
12165;SDS011;6146;48.128;11.476;2022-07-23T04:58:38;6.10;;;5.50;;
12165;SDS011;6146;48.128;11.476;2022-07-23T05:01:03;6.10;;;5.47;;
12165;SDS011;6146;48.128;11.476;2022-07-23T05:03:29;6.77;;;5.87;;
12165;SDS011;6146;48.128;11.476;2022-07-23T05:05:55;6.37;;;5.77;;
12165;SDS011;6146;48.128;11.476;2022-07-23T05:08:20;7.07;;;6.40;;
12165;SDS011;6146;48.128;11.476;2022-07-23T05:10:46;6.77;;;6.17;;
12165;SDS011;6146;48.128;11.476;2022-07-23T05:13:13;6.30;;;5.70;;
12165;SDS011;6146;48.128;11.476;2022-07-23T05:15:40;6.60;;;6.00;;
12165;SDS011;6146;48.128;11.476;2022-07-23T05:18:06;6.37;;;5.87;;
12165;SDS011;6146;48.128;11.476;2022-07-23T05:20:32;7.23;;;6.47;;
12165;SDS011;6146;48.128;11.476;2022-07-23T05:22:57;6.13;;;5.63;;
12165;SDS011;6146;48.128;11.476;2022-07-23T05:25:23;6.60;;;5.80;;
12165;SDS011;6146;48.128;11.476;2022-07-23T05:27:48;6.47;;;5.57;;
12165;SDS011;6146;48.128;11.476;2022-07-23T05:30:14;6.60;;;6.00;;
12165;SDS011;6146;48.128;11.476;2022-07-23T05:32:40;6.27;;;5.70;;
12165;SDS011;6146;48.128;11.476;2022-07-23T05:35:06;6.83;;;6.23;;
12165;SDS011;6146;48.128;11.476;2022-07-23T05:37:32;7.83;;;5.97;;
12165;SDS011;6146;48.128;11.476;2022-07-23T05:40:04;7.30;;;6.20;;
12165;SDS011;6146;48.128;11.476;2022-07-23T05:42:36;6.27;;;5.77;;
12165;SDS011;6146;48.128;11.476;2022-07-23T05:45:02;6.57;;;5.97;;
12165;SDS011;6146;48.128;11.476;2022-07-23T05:47:29;6.77;;;6.00;;
12165;SDS011;6146;48.128;11.476;2022-07-23T05:50:11;6.57;;;6.07;;
12165;SDS011;6146;48.128;11.476;2022-07-23T05:52:37;6.70;;;6.10;;
12165;SDS011;6146;48.128;11.476;2022-07-23T05:55:04;6.80;;;6.20;;
12165;SDS011;6146;48.128;11.476;2022-07-23T05:57:30;6.97;;;6.20;;
12165;SDS011;6146;48.128;11.476;2022-07-23T05:59:56;6.73;;;6.13;;
12165;SDS011;6146;48.128;11.476;2022-07-23T06:02:21;6.80;;;5.70;;
12165;SDS011;6146;48.128;11.476;2022-07-23T06:04:47;6.60;;;6.00;;
12165;SDS011;6146;48.128;11.476;2022-07-23T06:07:12;8.83;;;6.03;;
12165;SDS011;6146;48.128;11.476;2022-07-23T06:09:38;7.67;;;6.60;;
12165;SDS011;6146;48.128;11.476;2022-07-23T06:12:04;7.20;;;6.60;;
12165;SDS011;6146;48.128;11.476;2022-07-23T06:14:29;7.97;;;7.20;;
12165;SDS011;6146;48.128;11.476;2022-07-23T06:16:55;9.10;;;6.67;;
12165;SDS011;6146;48.128;11.476;2022-07-23T06:19:20;8.97;;;6.83;;
12165;SDS011;6146;48.128;11.476;2022-07-23T06:21:46;7.60;;;6.90;;
12165;SDS011;6146;48.128;11.476;2022-07-23T06:24:12;7.83;;;6.93;;
12165;SDS011;6146;48.128;11.476;2022-07-23T06:26:37;7.47;;;6.87;;
12165;SDS011;6146;48.128;11.476;2022-07-23T06:29:03;8.00;;;6.83;;
12165;SDS011;6146;48.128;11.476;2022-07-23T06:31:29;7.90;;;7.20;;
12165;SDS011;6146;48.128;11.476;2022-07-23T06:33:54;9.10;;;7.53;;
12165;SDS011;6146;48.128;11.476;2022-07-23T06:36:20;8.03;;;7.23;;
12165;SDS011;6146;48.128;11.476;2022-07-23T06:38:45;7.07;;;6.37;;
12165;SDS011;6146;48.128;11.476;2022-07-23T06:41:11;8.03;;;7.17;;
12165;SDS011;6146;48.128;11.476;2022-07-23T06:43:37;7.07;;;6.47;;
12165;SDS011;6146;48.128;11.476;2022-07-23T06:46:02;7.07;;;6.43;;
12165;SDS011;6146;48.128;11.476;2022-07-23T06:48:28;7.57;;;6.90;;
12165;SDS011;6146;48.128;11.476;2022-07-23T06:50:53;7.17;;;6.57;;
12165;SDS011;6146;48.128;11.476;2022-07-23T06:53:20;7.80;;;7.10;;
12165;SDS011;6146;48.128;11.476;2022-07-23T06:55:46;7.70;;;7.03;;
12165;SDS011;6146;48.128;11.476;2022-07-23T06:58:11;7.80;;;7.10;;
12165;SDS011;6146;48.128;11.476;2022-07-23T07:00:38;7.03;;;6.43;;
12165;SDS011;6146;48.128;11.476;2022-07-23T07:03:04;7.07;;;6.47;;
12165;SDS011;6146;48.128;11.476;2022-07-23T07:05:30;7.03;;;6.43;;
12165;SDS011;6146;48.128;11.476;2022-07-23T07:07:56;7.60;;;6.90;;
12165;SDS011;6146;48.128;11.476;2022-07-23T07:10:21;7.77;;;7.07;;
12165;SDS011;6146;48.128;11.476;2022-07-23T07:12:47;7.60;;;6.93;;
12165;SDS011;6146;48.128;11.476;2022-07-23T07:15:13;7.23;;;6.57;;
12165;SDS011;6146;48.128;11.476;2022-07-23T07:17:38;8.27;;;7.50;;
12165;SDS011;6146;48.128;11.476;2022-07-23T07:20:04;8.33;;;7.43;;
12165;SDS011;6146;48.128;11.476;2022-07-23T07:22:31;7.53;;;6.93;;
12165;SDS011;6146;48.128;11.476;2022-07-23T07:24:56;7.40;;;6.80;;
12165;SDS011;6146;48.128;11.476;2022-07-23T07:27:22;7.83;;;7.13;;
12165;SDS011;6146;48.128;11.476;2022-07-23T07:29:47;7.60;;;6.90;;
12165;SDS011;6146;48.128;11.476;2022-07-23T07:32:13;7.93;;;7.17;;
12165;SDS011;6146;48.128;11.476;2022-07-23T07:34:39;7.83;;;7.00;;
12165;SDS011;6146;48.128;11.476;2022-07-23T07:37:04;7.47;;;6.83;;
12165;SDS011;6146;48.128;11.476;2022-07-23T07:39:30;8.33;;;7.53;;
12165;SDS011;6146;48.128;11.476;2022-07-23T07:41:55;7.77;;;7.10;;
12165;SDS011;6146;48.128;11.476;2022-07-23T07:44:21;7.70;;;7.00;;
12165;SDS011;6146;48.128;11.476;2022-07-23T07:46:47;8.13;;;7.53;;
12165;SDS011;6146;48.128;11.476;2022-07-23T07:49:12;7.93;;;7.13;;
12165;SDS011;6146;48.128;11.476;2022-07-23T07:51:38;7.90;;;7.10;;
12165;SDS011;6146;48.128;11.476;2022-07-23T07:54:03;8.23;;;7.43;;
12165;SDS011;6146;48.128;11.476;2022-07-23T07:56:29;8.23;;;7.53;;
12165;SDS011;6146;48.128;11.476;2022-07-23T07:58:55;8.20;;;7.40;;
12165;SDS011;6146;48.128;11.476;2022-07-23T08:01:20;7.73;;;7.00;;
12165;SDS011;6146;48.128;11.476;2022-07-23T08:03:46;7.47;;;6.77;;
12165;SDS011;6146;48.128;11.476;2022-07-23T08:06:12;8.20;;;7.50;;
12165;SDS011;6146;48.128;11.476;2022-07-23T08:08:38;7.50;;;6.90;;
12165;SDS011;6146;48.128;11.476;2022-07-23T08:11:03;7.70;;;7.00;;
12165;SDS011;6146;48.128;11.476;2022-07-23T08:13:29;8.13;;;7.27;;
12165;SDS011;6146;48.128;11.476;2022-07-23T08:15:54;7.37;;;6.77;;
12165;SDS011;6146;48.128;11.476;2022-07-23T08:18:20;7.50;;;6.80;;
12165;SDS011;6146;48.128;11.476;2022-07-23T08:20:46;8.10;;;7.30;;
12165;SDS011;6146;48.128;11.476;2022-07-23T08:23:11;7.40;;;6.70;;
12165;SDS011;6146;48.128;11.476;2022-07-23T08:25:38;8.40;;;7.60;;
12165;SDS011;6146;48.128;11.476;2022-07-23T08:28:06;7.30;;;6.60;;
12165;SDS011;6146;48.128;11.476;2022-07-23T08:30:34;7.77;;;6.97;;
12165;SDS011;6146;48.128;11.476;2022-07-23T08:33:02;7.63;;;7.00;;
12165;SDS011;6146;48.128;11.476;2022-07-23T08:35:32;6.83;;;6.23;;
12165;SDS011;6146;48.128;11.476;2022-07-23T08:38:00;7.80;;;7.00;;
12165;SDS011;6146;48.128;11.476;2022-07-23T08:40:29;6.83;;;6.13;;
12165;SDS011;6146;48.128;11.476;2022-07-23T08:42:56;6.80;;;6.20;;
12165;SDS011;6146;48.128;11.476;2022-07-23T08:45:23;6.57;;;6.07;;
12165;SDS011;6146;48.128;11.476;2022-07-23T08:47:53;6.40;;;5.90;;
12165;SDS011;6146;48.128;11.476;2022-07-23T08:50:22;6.53;;;5.93;;
12165;SDS011;6146;48.128;11.476;2022-07-23T08:52:50;6.20;;;5.67;;
12165;SDS011;6146;48.128;11.476;2022-07-23T08:55:17;6.63;;;6.03;;
12165;SDS011;6146;48.128;11.476;2022-07-23T08:57:43;7.40;;;6.43;;
12165;SDS011;6146;48.128;11.476;2022-07-23T09:00:09;6.07;;;5.57;;
12165;SDS011;6146;48.128;11.476;2022-07-23T09:02:39;6.70;;;6.10;;
12165;SDS011;6146;48.128;11.476;2022-07-23T09:05:06;6.33;;;5.83;;
12165;SDS011;6146;48.128;11.476;2022-07-23T09:07:32;6.57;;;5.97;;
12165;SDS011;6146;48.128;11.476;2022-07-23T09:10:05;6.57;;;6.07;;
12165;SDS011;6146;48.128;11.476;2022-07-23T09:12:33;8.70;;;6.43;;
12165;SDS011;6146;48.128;11.476;2022-07-23T09:15:02;6.60;;;6.10;;
12165;SDS011;6146;48.128;11.476;2022-07-23T09:17:36;6.93;;;6.23;;
12165;SDS011;6146;48.128;11.476;2022-07-23T09:20:07;6.40;;;5.90;;
12165;SDS011;6146;48.128;11.476;2022-07-23T09:22:37;6.73;;;6.23;;
12165;SDS011;6146;48.128;11.476;2022-07-23T09:25:12;6.97;;;6.37;;
12165;SDS011;6146;48.128;11.476;2022-07-23T09:27:55;5.67;;;5.17;;
12165;SDS011;6146;48.128;11.476;2022-07-23T09:30:27;5.25;;;4.70;;
12165;SDS011;6146;48.128;11.476;2022-07-23T09:35:49;4.40;;;4.10;;
12165;SDS011;6146;48.128;11.476;2022-07-23T09:38:20;4.95;;;4.57;;
12165;SDS011;6146;48.128;11.476;2022-07-23T09:41:04;4.65;;;4.25;;
12165;SDS011;6146;48.128;11.476;2022-07-23T09:43:34;4.25;;;3.85;;
12165;SDS011;6146;48.128;11.476;2022-07-23T09:48:48;4.03;;;3.72;;
12165;SDS011;6146;48.128;11.476;2022-07-23T09:51:14;4.65;;;4.25;;
12165;SDS011;6146;48.128;11.476;2022-07-23T09:53:43;4.35;;;3.90;;
12165;SDS011;6146;48.128;11.476;2022-07-23T09:56:08;4.45;;;4.05;;
12165;SDS011;6146;48.128;11.476;2022-07-23T09:58:38;4.40;;;3.97;;
12165;SDS011;6146;48.128;11.476;2022-07-23T10:01:10;5.05;;;4.65;;
12165;SDS011;6146;48.128;11.476;2022-07-23T10:03:38;4.68;;;4.28;;
12165;SDS011;6146;48.128;11.476;2022-07-23T10:06:05;9.07;;;8.27;;
12165;SDS011;6146;48.128;11.476;2022-07-23T10:08:31;5.93;;;5.43;;
12165;SDS011;6146;48.128;11.476;2022-07-23T10:10:57;5.00;;;4.50;;
12165;SDS011;6146;48.128;11.476;2022-07-23T10:13:25;7.00;;;5.25;;
12165;SDS011;6146;48.128;11.476;2022-07-23T10:16:09;5.88;;;5.10;;
12165;SDS011;6146;48.128;11.476;2022-07-23T10:18:35;5.10;;;4.63;;
12165;SDS011;6146;48.128;11.476;2022-07-23T10:21:01;5.28;;;4.78;;
12165;SDS011;6146;48.128;11.476;2022-07-23T10:23:36;4.63;;;4.28;;
12165;SDS011;6146;48.128;11.476;2022-07-23T10:29:06;4.22;;;3.85;;
12165;SDS011;6146;48.128;11.476;2022-07-23T10:31:41;4.38;;;3.97;;
12165;SDS011;6146;48.128;11.476;2022-07-23T10:34:41;5.38;;;4.15;;
12165;SDS011;6146;48.128;11.476;2022-07-23T10:39:40;4.60;;;4.20;;
12165;SDS011;6146;48.128;11.476;2022-07-23T10:42:13;5.50;;;4.97;;
12165;SDS011;6146;48.128;11.476;2022-07-23T10:44:46;4.07;;;3.78;;
12165;SDS011;6146;48.128;11.476;2022-07-23T10:47:21;5.63;;;4.70;;
12165;SDS011;6146;48.128;11.476;2022-07-23T10:50:17;5.15;;;4.30;;
12165;SDS011;6146;48.128;11.476;2022-07-23T10:58:08;4.93;;;4.53;;
12165;SDS011;6146;48.128;11.476;2022-07-23T11:00:34;5.03;;;4.47;;
12165;SDS011;6146;48.128;11.476;2022-07-23T11:03:05;5.07;;;4.60;;
12165;SDS011;6146;48.128;11.476;2022-07-23T11:05:51;6.05;;;4.82;;
12165;SDS011;6146;48.128;11.476;2022-07-23T11:08:19;5.15;;;4.75;;
12165;SDS011;6146;48.128;11.476;2022-07-23T11:24:05;5.57;;;5.07;;
12165;SDS011;6146;48.128;11.476;2022-07-23T11:32:06;6.70;;;6.07;;
12165;SDS011;6146;48.128;11.476;2022-07-23T11:34:40;7.07;;;6.40;;
12165;SDS011;6146;48.128;11.476;2022-07-23T11:37:11;7.37;;;6.77;;
12165;SDS011;6146;48.128;11.476;2022-07-23T11:39:52;7.10;;;6.47;;
12165;SDS011;6146;48.128;11.476;2022-07-23T11:42:22;6.63;;;5.83;;
12165;SDS011;6146;48.128;11.476;2022-07-23T11:44:49;5.90;;;5.40;;
12165;SDS011;6146;48.128;11.476;2022-07-23T11:47:15;6.57;;;5.53;;
12165;SDS011;6146;48.128;11.476;2022-07-23T11:50:00;6.00;;;5.50;;
12165;SDS011;6146;48.128;11.476;2022-07-23T11:52:29;6.67;;;6.07;;
12165;SDS011;6146;48.128;11.476;2022-07-23T11:54:56;7.07;;;6.47;;
12165;SDS011;6146;48.128;11.476;2022-07-23T11:57:29;6.43;;;5.80;;
12165;SDS011;6146;48.128;11.476;2022-07-23T12:00:04;7.07;;;6.43;;
12165;SDS011;6146;48.128;11.476;2022-07-23T12:02:45;6.70;;;6.10;;
12165;SDS011;6146;48.128;11.476;2022-07-23T12:05:13;7.40;;;6.50;;
12165;SDS011;6146;48.128;11.476;2022-07-23T12:07:43;6.53;;;5.93;;
12165;SDS011;6146;48.128;11.476;2022-07-23T12:13:09;6.27;;;5.67;;
12165;SDS011;6146;48.128;11.476;2022-07-23T12:15:38;6.50;;;5.90;;
12165;SDS011;6146;48.128;11.476;2022-07-23T12:18:06;5.80;;;5.30;;
12165;SDS011;6146;48.128;11.476;2022-07-23T12:20:34;6.43;;;5.80;;
12165;SDS011;6146;48.128;11.476;2022-07-23T12:23:03;6.80;;;5.37;;
12165;SDS011;6146;48.128;11.476;2022-07-23T12:25:30;6.37;;;5.77;;
12165;SDS011;6146;48.128;11.476;2022-07-23T12:28:03;6.33;;;5.73;;
12165;SDS011;6146;48.128;11.476;2022-07-23T12:30:30;6.40;;;5.77;;
12165;SDS011;6146;48.128;11.476;2022-07-23T12:32:58;8.00;;;6.83;;
12165;SDS011;6146;48.128;11.476;2022-07-23T12:35:30;6.73;;;5.50;;
12165;SDS011;6146;48.128;11.476;2022-07-23T12:37:59;6.77;;;5.90;;
12165;SDS011;6146;48.128;11.476;2022-07-23T12:40:28;7.03;;;6.47;;
12165;SDS011;6146;48.128;11.476;2022-07-23T12:43:04;6.40;;;5.80;;
12165;SDS011;6146;48.128;11.476;2022-07-23T12:45:48;6.60;;;6.00;;
12165;SDS011;6146;48.128;11.476;2022-07-23T12:48:18;6.80;;;6.10;;
12165;SDS011;6146;48.128;11.476;2022-07-23T12:50:49;6.87;;;6.17;;
12165;SDS011;6146;48.128;11.476;2022-07-23T12:56:06;7.10;;;6.50;;
12165;SDS011;6146;48.128;11.476;2022-07-23T13:01:07;6.20;;;5.70;;
12165;SDS011;6146;48.128;11.476;2022-07-23T13:03:34;6.63;;;5.73;;
12165;SDS011;6146;48.128;11.476;2022-07-23T13:06:09;6.90;;;6.17;;
12165;SDS011;6146;48.128;11.476;2022-07-23T13:08:36;6.37;;;5.77;;
12165;SDS011;6146;48.128;11.476;2022-07-23T13:11:05;6.23;;;5.63;;
12165;SDS011;6146;48.128;11.476;2022-07-23T13:13:31;6.47;;;5.87;;
12165;SDS011;6146;48.128;11.476;2022-07-23T13:15:59;6.30;;;5.80;;
12165;SDS011;6146;48.128;11.476;2022-07-23T13:18:25;6.67;;;5.27;;
12165;SDS011;6146;48.128;11.476;2022-07-23T13:20:53;6.60;;;6.10;;
12165;SDS011;6146;48.128;11.476;2022-07-23T13:23:20;6.57;;;5.97;;
12165;SDS011;6146;48.128;11.476;2022-07-23T13:25:46;6.73;;;6.20;;
12165;SDS011;6146;48.128;11.476;2022-07-23T13:28:13;6.67;;;6.07;;
12165;SDS011;6146;48.128;11.476;2022-07-23T13:30:40;7.27;;;6.33;;
12165;SDS011;6146;48.128;11.476;2022-07-23T13:33:06;6.77;;;6.17;;
12165;SDS011;6146;48.128;11.476;2022-07-23T13:35:33;6.53;;;6.03;;
12165;SDS011;6146;48.128;11.476;2022-07-23T13:37:59;6.60;;;6.10;;
12165;SDS011;6146;48.128;11.476;2022-07-23T13:40:25;6.60;;;6.00;;
12165;SDS011;6146;48.128;11.476;2022-07-23T13:42:50;6.43;;;5.83;;
12165;SDS011;6146;48.128;11.476;2022-07-23T13:45:16;6.13;;;5.63;;
12165;SDS011;6146;48.128;11.476;2022-07-23T13:47:42;6.37;;;5.87;;
12165;SDS011;6146;48.128;11.476;2022-07-23T13:50:07;6.57;;;5.70;;
12165;SDS011;6146;48.128;11.476;2022-07-23T13:52:33;6.53;;;5.83;;
12165;SDS011;6146;48.128;11.476;2022-07-23T13:55:00;6.17;;;5.57;;
12165;SDS011;6146;48.128;11.476;2022-07-23T13:57:28;6.53;;;6.03;;
12165;SDS011;6146;48.128;11.476;2022-07-23T13:59:54;6.23;;;5.63;;
12165;SDS011;6146;48.128;11.476;2022-07-23T14:02:20;6.27;;;5.77;;
12165;SDS011;6146;48.128;11.476;2022-07-23T14:04:46;6.70;;;5.90;;
12165;SDS011;6146;48.128;11.476;2022-07-23T14:07:11;6.77;;;5.83;;
12165;SDS011;6146;48.128;11.476;2022-07-23T14:09:37;5.67;;;5.17;;
12165;SDS011;6146;48.128;11.476;2022-07-23T14:12:03;6.73;;;6.13;;
12165;SDS011;6146;48.128;11.476;2022-07-23T14:14:29;9.80;;;6.77;;
12165;SDS011;6146;48.128;11.476;2022-07-23T14:16:55;6.07;;;5.47;;
12165;SDS011;6146;48.128;11.476;2022-07-23T14:19:21;6.10;;;5.57;;
12165;SDS011;6146;48.128;11.476;2022-07-23T14:21:48;5.70;;;5.20;;
12165;SDS011;6146;48.128;11.476;2022-07-23T14:24:14;5.83;;;5.33;;
12165;SDS011;6146;48.128;11.476;2022-07-23T14:26:40;6.30;;;5.10;;
12165;SDS011;6146;48.128;11.476;2022-07-23T14:29:06;6.27;;;5.67;;
12165;SDS011;6146;48.128;11.476;2022-07-23T14:31:31;5.70;;;5.07;;
12165;SDS011;6146;48.128;11.476;2022-07-23T14:33:57;6.20;;;5.60;;
12165;SDS011;6146;48.128;11.476;2022-07-23T14:36:23;6.47;;;5.87;;
12165;SDS011;6146;48.128;11.476;2022-07-23T14:38:50;6.13;;;5.63;;
12165;SDS011;6146;48.128;11.476;2022-07-23T14:41:16;6.03;;;5.53;;
12165;SDS011;6146;48.128;11.476;2022-07-23T14:43:41;6.20;;;5.70;;
12165;SDS011;6146;48.128;11.476;2022-07-23T14:46:07;6.20;;;5.60;;
12165;SDS011;6146;48.128;11.476;2022-07-23T14:48:33;6.97;;;6.43;;
12165;SDS011;6146;48.128;11.476;2022-07-23T14:50:59;6.47;;;5.87;;
12165;SDS011;6146;48.128;11.476;2022-07-23T14:53:24;6.33;;;5.83;;
12165;SDS011;6146;48.128;11.476;2022-07-23T14:55:50;6.70;;;6.00;;
12165;SDS011;6146;48.128;11.476;2022-07-23T14:58:16;6.17;;;5.67;;
12165;SDS011;6146;48.128;11.476;2022-07-23T15:00:42;6.63;;;6.03;;
12165;SDS011;6146;48.128;11.476;2022-07-23T15:03:08;6.70;;;6.20;;
12165;SDS011;6146;48.128;11.476;2022-07-23T15:05:33;8.50;;;7.57;;
12165;SDS011;6146;48.128;11.476;2022-07-23T15:07:59;6.60;;;6.10;;
12165;SDS011;6146;48.128;11.476;2022-07-23T15:10:25;6.90;;;6.30;;
12165;SDS011;6146;48.128;11.476;2022-07-23T15:12:50;6.87;;;6.17;;
12165;SDS011;6146;48.128;11.476;2022-07-23T15:15:16;6.83;;;6.17;;
12165;SDS011;6146;48.128;11.476;2022-07-23T15:17:42;6.80;;;6.10;;
12165;SDS011;6146;48.128;11.476;2022-07-23T15:20:08;6.70;;;6.10;;
12165;SDS011;6146;48.128;11.476;2022-07-23T15:22:34;6.97;;;6.40;;
12165;SDS011;6146;48.128;11.476;2022-07-23T15:25:00;7.20;;;6.60;;
12165;SDS011;6146;48.128;11.476;2022-07-23T15:27:27;7.30;;;6.60;;
12165;SDS011;6146;48.128;11.476;2022-07-23T15:29:52;6.97;;;6.03;;
12165;SDS011;6146;48.128;11.476;2022-07-23T15:32:18;7.43;;;6.73;;